createdAt,value
2023-03-04T00:03:05.187Z,100163.38
2023-03-04T00:07:19.208Z,100165.13
2023-03-04T00:11:32.422Z,100165.09
2023-03-04T00:15:44.889Z,100160.72
2023-03-04T00:19:57.863Z,100158.09
2023-03-04T00:24:10.615Z,100150.13
2023-03-04T00:28:23.084Z,100153.56
2023-03-04T00:32:35.651Z,100153.63
2023-03-04T00:36:49.149Z,100156.22
2023-03-04T00:41:02.818Z,100157.94
2023-03-04T00:45:17.058Z,100150.94
2023-03-04T00:49:29.281Z,100156.22
2023-03-04T00:53:41.687Z,100146.44
2023-03-04T00:57:54.507Z,100147.41
2023-03-04T01:02:07.566Z,100137.72
2023-03-04T01:06:19.985Z,100129.91
2023-03-04T01:10:33.842Z,100125.66
2023-03-04T01:14:46.225Z,100121.38
2023-03-04T01:18:58.735Z,100130.16
2023-03-04T01:23:11.039Z,100127.44
2023-03-04T01:27:23.760Z,100115.09
2023-03-04T01:31:36.268Z,100109.88
2023-03-04T01:35:48.728Z,100097.53
2023-03-04T01:40:01.622Z,100097.53
2023-03-04T01:44:14.186Z,100091.38
2023-03-04T01:48:31.820Z,100086.03
2023-03-04T01:52:51.415Z,100081.63
2023-03-04T01:57:17.826Z,100087.66
2023-03-04T02:01:30.284Z,100093.78
2023-03-04T02:05:45.987Z,100086.81
2023-03-04T02:09:58.445Z,100087.53
2023-03-04T02:14:12.667Z,100089.31
2023-03-04T02:18:25.103Z,100101.59
2023-03-04T02:22:43.737Z,100102.53
2023-03-04T02:26:56.159Z,100118.31
2023-03-04T02:31:25.995Z,100120.09
2023-03-04T02:35:38.551Z,100109.63
2023-03-04T02:39:51.689Z,100117.59
2023-03-04T02:44:04.579Z,100123.78
2023-03-04T02:48:20.001Z,100127.38
2023-03-04T02:52:32.761Z,100137.03
2023-03-04T02:56:49.942Z,100151.06
2023-03-04T03:01:04.283Z,100149.22
2023-03-04T03:05:17.526Z,100156.22
2023-03-04T03:09:30.183Z,100161.44
2023-03-04T03:13:44.757Z,100173.88
2023-03-04T03:18:01.817Z,100172.22
2023-03-04T03:22:14.256Z,100173.19
2023-03-04T03:26:26.807Z,100179.38
2023-03-04T03:30:39.265Z,100185.53
2023-03-04T03:34:52.172Z,100182.03
2023-03-04T03:39:04.573Z,100185.56
2023-03-04T03:43:16.976Z,100184.66
2023-03-04T03:47:29.385Z,100176.75
2023-03-04T03:51:41.958Z,100170.63
2023-03-04T03:55:54.360Z,100146.03
2023-03-04T04:00:08.732Z,100126.59
2023-03-04T04:04:27.013Z,100118.72
2023-03-04T04:08:39.498Z,100122.28
2023-03-04T04:12:52.019Z,100122.25
2023-03-04T04:17:04.344Z,100138.09
2023-03-04T04:21:16.809Z,100122.25
2023-03-04T04:25:29.202Z,100121.38
2023-03-04T04:29:42.106Z,100112.59
2023-03-04T04:33:54.621Z,100109.97
2023-03-04T04:38:08.876Z,100097.63
2023-03-04T04:42:22.403Z,100109.06
2023-03-04T04:46:36.230Z,100095.00
2023-03-04T04:50:57.797Z,100101.13
2023-03-04T04:55:10.779Z,100093.22
2023-03-04T04:59:23.256Z,100087.09
2023-03-04T05:03:37.300Z,100093.22
2023-03-04T05:07:49.683Z,100078.19
2023-03-04T05:12:02.064Z,100082.56
2023-03-04T05:16:15.890Z,100088.78
2023-03-04T05:20:30.572Z,100078.19
2023-03-04T05:24:43.002Z,100073.75
2023-03-04T05:28:55.324Z,100067.53
2023-03-04T05:33:09.235Z,100063.16
2023-03-04T05:37:21.669Z,100066.69
2023-03-04T05:41:34.005Z,100082.53
2023-03-04T05:45:46.365Z,100088.72
2023-03-04T05:49:58.772Z,100092.13
2023-03-04T05:54:11.198Z,100093.94
2023-03-04T05:58:23.778Z,100103.69
2023-03-04T06:02:38.018Z,100111.59
2023-03-04T06:06:50.652Z,100118.63
2023-03-04T06:11:05.170Z,100126.44
2023-03-04T06:15:17.753Z,100117.69
2023-03-04T06:19:30.892Z,100127.28
2023-03-04T06:23:43.634Z,100127.22
2023-03-04T06:27:56.264Z,100128.00
2023-03-04T06:32:08.642Z,100141.19
2023-03-04T06:36:21.114Z,100139.38
2023-03-04T06:40:33.648Z,100142.03
2023-03-04T06:44:46.001Z,100147.41
2023-03-04T06:48:58.328Z,100159.72
2023-03-04T06:53:10.672Z,100165.28
2023-03-04T06:57:23.066Z,100169.72
2023-03-04T07:01:37.572Z,100171.50
2023-03-04T07:05:49.903Z,100174.06
2023-03-04T07:10:02.361Z,100178.47
2023-03-04T07:14:14.882Z,100189.06
2023-03-04T07:18:27.705Z,100185.50
2023-03-04T07:22:40.079Z,100184.56
2023-03-04T07:26:52.728Z,100201.03
2023-03-04T07:31:23.515Z,100194.94
2023-03-04T07:35:36.128Z,100203.00
2023-03-04T07:39:48.571Z,100203.84
2023-03-04T07:44:01.768Z,100203.00
2023-03-04T07:48:14.150Z,100212.56
2023-03-04T07:52:26.525Z,100201.22
2023-03-04T07:56:38.974Z,100209.06
2023-03-04T08:00:51.370Z,100209.59
2023-03-04T08:05:04.334Z,100210.00
2023-03-04T08:09:16.796Z,100214.09
2023-03-04T08:13:29.157Z,100213.78
2023-03-04T08:17:41.750Z,100214.25
2023-03-04T08:21:54.164Z,100216.28
2023-03-04T08:26:11.878Z,100215.53
2023-03-04T08:30:24.445Z,100201.19
2023-03-04T08:34:39.757Z,100198.94
2023-03-04T08:38:52.058Z,100191.75
2023-03-04T08:43:04.506Z,100185.44
2023-03-04T08:47:17.259Z,100197.34
2023-03-04T08:51:29.732Z,100198.13
2023-03-04T08:55:42.727Z,100199.69
2023-03-04T08:59:55.468Z,100187.72
2023-03-04T09:04:07.864Z,100193.03
2023-03-04T09:08:20.394Z,100191.94
2023-03-04T09:12:32.814Z,100190.28
2023-03-04T09:16:45.742Z,100186.44
2023-03-04T09:20:58.263Z,100191.66
2023-03-04T09:25:14.763Z,100191.28
2023-03-04T09:29:27.376Z,100188.63
2023-03-04T09:33:42.685Z,100194.94
2023-03-04T09:37:56.911Z,100184.75
2023-03-04T09:42:19.186Z,100189.81
2023-03-04T09:46:40.468Z,100196.28
2023-03-04T09:51:08.210Z,100187.41
2023-03-04T09:55:39.506Z,100183.03
2023-03-04T09:59:58.577Z,100168.56
2023-03-04T10:04:18.115Z,100181.25
2023-03-04T10:08:57.969Z,100170.38
2023-03-04T10:13:22.462Z,100166.41
2023-03-04T10:17:45.479Z,100177.00
2023-03-04T10:21:57.874Z,100174.56
2023-03-04T10:26:15.502Z,100168.56
2023-03-04T10:31:05.241Z,100162.06
2023-03-04T10:35:23.328Z,100155.00
2023-03-04T10:39:47.493Z,100145.78
2023-03-04T10:44:10.004Z,100149.78
2023-03-04T10:48:26.180Z,100144.31
2023-03-04T10:52:50.814Z,100146.63
2023-03-04T10:57:17.392Z,100135.38
2023-03-04T11:01:30.575Z,100134.34
2023-03-04T11:05:43.012Z,100132.03
2023-03-04T11:09:58.324Z,100123.88
2023-03-04T11:14:25.427Z,100134.31
2023-03-04T11:18:54.086Z,100103.69
2023-03-04T11:23:28.235Z,100106.97
2023-03-04T11:27:46.589Z,100088.59
2023-03-04T11:32:11.442Z,100094.06
2023-03-04T11:36:32.431Z,100081.13
2023-03-04T11:40:50.686Z,100060.06
2023-03-04T11:45:04.080Z,100061.25
2023-03-04T11:49:44.937Z,100050.88
2023-03-04T11:54:10.068Z,100037.81
2023-03-04T11:58:25.088Z,100034.88
2023-03-04T12:02:49.202Z,100029.81
2023-03-04T12:07:10.598Z,100026.22
2023-03-04T12:11:25.768Z,100021.28
2023-03-04T12:16:11.504Z,100015.06
2023-03-04T12:20:39.067Z,100004.69
2023-03-04T12:25:23.338Z,99989.16
2023-03-04T12:29:44.650Z,99983.34
2023-03-04T12:34:28.227Z,99979.75
2023-03-04T12:39:10.501Z,99979.06
2023-03-04T12:43:53.715Z,99977.44
2023-03-04T12:48:36.546Z,99972.47
2023-03-04T12:53:14.893Z,99970.44
2023-03-04T12:57:32.118Z,99962.13
2023-03-04T13:02:22.521Z,99951.09
2023-03-04T13:07:07.327Z,99961.19
2023-03-04T13:11:29.293Z,99961.19
2023-03-04T13:15:41.711Z,99958.94
2023-03-04T13:20:11.781Z,99949.34
2023-03-04T13:25:02.753Z,99950.28
2023-03-04T13:29:15.007Z,99953.00
2023-03-04T13:33:27.404Z,99949.22
2023-03-04T13:37:58.349Z,99939.22
2023-03-04T13:42:38.675Z,99949.78
2023-03-04T13:46:51.284Z,99942.78
2023-03-04T13:51:05.272Z,99933.59
2023-03-04T13:55:41.364Z,99939.88
2023-03-04T13:59:57.934Z,99934.16
2023-03-04T14:04:27.115Z,99919.75
2023-03-04T14:08:39.778Z,99931.66
2023-03-04T14:12:55.811Z,99911.94
2023-03-04T14:17:22.937Z,99917.84
2023-03-04T14:21:37.313Z,99904.81
2023-03-04T14:25:50.038Z,99901.94
2023-03-04T14:30:07.461Z,99894.16
2023-03-04T14:34:40.099Z,99890.34
2023-03-04T14:38:59.155Z,99884.41
2023-03-04T14:43:22.536Z,99878.28
2023-03-04T14:47:44.029Z,99885.41
2023-03-04T14:51:57.104Z,99880.97
2023-03-04T14:56:10.964Z,99876.41
2023-03-04T15:00:23.177Z,99880.63
2023-03-04T15:04:38.874Z,99864.25
2023-03-04T15:09:24.230Z,99868.41
2023-03-04T15:13:51.853Z,99863.97
2023-03-04T15:18:26.617Z,99863.28
2023-03-04T15:22:45.200Z,99866.31
2023-03-04T15:26:57.685Z,99861.84
2023-03-04T15:31:18.201Z,99867.56
2023-03-04T15:35:32.701Z,99864.78
2023-03-04T15:39:45.086Z,99867.03
2023-03-04T15:43:57.540Z,99872.44
2023-03-04T15:48:12.988Z,99878.19
2023-03-04T15:52:26.080Z,99883.84
2023-03-04T15:56:39.809Z,99886.00
2023-03-04T16:00:52.263Z,99890.28
2023-03-04T16:05:04.791Z,99883.59
2023-03-04T16:09:20.054Z,99897.59
2023-03-04T16:13:32.534Z,99909.19
2023-03-04T16:17:45.424Z,99918.47
2023-03-04T16:21:57.839Z,99912.59
2023-03-04T16:26:15.896Z,99908.06
2023-03-04T16:30:28.838Z,99916.31
2023-03-04T16:34:42.336Z,99908.13
2023-03-04T16:39:00.032Z,99912.84
2023-03-04T16:43:14.313Z,99914.94
2023-03-04T16:47:28.229Z,99922.97
2023-03-04T16:51:45.558Z,99925.66
2023-03-04T16:56:01.748Z,99932.00
2023-03-04T17:00:19.512Z,99933.69
2023-03-04T17:04:31.944Z,99932.78
2023-03-04T17:08:45.868Z,99945.28
2023-03-04T17:12:58.277Z,99947.28
2023-03-04T17:17:10.889Z,99953.38
2023-03-04T17:21:26.507Z,99949.97
2023-03-04T17:25:39.501Z,99955.16
2023-03-04T17:29:53.567Z,99958.59
2023-03-04T17:34:06.220Z,99958.44
2023-03-04T17:38:19.057Z,99954.19
2023-03-04T17:42:31.547Z,99944.72
2023-03-04T17:46:44.127Z,99949.16
2023-03-04T17:50:56.450Z,99960.69
2023-03-04T17:55:11.446Z,99969.66
2023-03-04T17:59:24.569Z,99976.69
2023-03-04T18:03:38.016Z,99977.66
2023-03-04T18:07:50.388Z,99992.59
2023-03-04T18:12:02.829Z,99996.19
2023-03-04T18:16:19.115Z,100006.78
2023-03-04T18:20:31.540Z,100006.66
2023-03-04T18:24:43.962Z,100010.28
2023-03-04T18:28:56.908Z,100012.88
2023-03-04T18:33:09.604Z,100014.13
2023-03-04T18:37:22.068Z,100018.84
2023-03-04T18:41:34.533Z,100026.72
2023-03-04T18:45:47.794Z,100025.22
2023-03-04T18:50:00.397Z,100028.78
2023-03-04T18:54:12.876Z,100021.81
2023-03-04T18:58:25.399Z,100025.38
2023-03-04T19:02:44.025Z,100026.25
2023-03-04T19:06:56.607Z,100025.38
2023-03-04T19:11:08.944Z,100013.03
2023-03-04T19:15:21.474Z,100018.34
2023-03-04T19:19:34.129Z,100011.22
2023-03-04T19:23:46.623Z,100010.38
2023-03-04T19:27:58.911Z,100026.16
2023-03-04T19:32:11.300Z,100028.78
2023-03-04T19:36:26.658Z,100020.91
2023-03-04T19:40:41.745Z,100019.16
2023-03-04T19:44:54.274Z,100022.69
2023-03-04T19:49:06.785Z,100025.28
2023-03-04T19:53:19.249Z,100033.19
2023-03-04T19:57:32.795Z,100035.00
2023-03-04T20:01:45.867Z,100047.25
2023-03-04T20:06:09.197Z,100055.25
2023-03-04T20:10:21.844Z,100042.84
2023-03-04T20:14:35.669Z,100046.38
2023-03-04T20:18:48.005Z,100036.66
2023-03-04T20:23:00.516Z,100042.94
2023-03-04T20:27:16.130Z,100027.19
2023-03-04T20:31:31.589Z,100022.78
2023-03-04T20:35:43.961Z,100017.50
2023-03-04T20:39:57.749Z,100024.47
2023-03-04T20:44:10.074Z,100006.78
2023-03-04T20:48:22.506Z,100008.69
2023-03-04T20:52:34.876Z,100001.59
2023-03-04T20:56:47.853Z,100009.53
2023-03-04T21:01:00.328Z,100012.25
2023-03-04T21:05:12.724Z,100003.44
2023-03-04T21:09:25.322Z,99996.44
2023-03-04T21:13:37.800Z,99992.03
2023-03-04T21:17:50.337Z,99990.19
2023-03-04T21:22:03.795Z,99982.28
2023-03-04T21:26:18.043Z,99975.25
2023-03-04T21:30:30.470Z,99970.88
2023-03-04T21:34:48.448Z,99969.13
2023-03-04T21:39:00.846Z,99974.50
2023-03-04T21:43:13.226Z,99971.03
2023-03-04T21:47:25.959Z,99963.81
2023-03-04T21:51:38.397Z,99961.94
2023-03-04T21:55:53.411Z,99954.13
2023-03-04T22:00:11.201Z,99951.63
2023-03-04T22:04:26.209Z,99954.06
2023-03-04T22:08:39.662Z,99950.63
2023-03-04T22:12:53.293Z,99946.19
2023-03-04T22:17:06.028Z,99944.44
2023-03-04T22:21:20.580Z,99950.59
2023-03-04T22:25:36.754Z,99948.00
2023-03-04T22:29:49.260Z,99951.50
2023-03-04T22:34:06.626Z,99955.00
2023-03-04T22:38:19.869Z,99951.50
2023-03-04T22:42:32.215Z,99946.22
2023-03-04T22:46:45.069Z,99951.47
2023-03-04T22:50:57.484Z,99948.66
2023-03-04T22:55:11.569Z,99947.91
2023-03-04T22:59:23.913Z,99950.63
2023-03-04T23:03:37.753Z,99955.00
2023-03-04T23:07:52.047Z,99946.19
2023-03-04T23:12:04.809Z,99946.22
2023-03-04T23:16:18.239Z,99939.16
2023-03-04T23:20:30.660Z,99940.91
2023-03-04T23:24:43.162Z,99923.34
2023-03-04T23:28:57.300Z,99924.19
2023-03-04T23:33:09.775Z,99918.06
2023-03-04T23:37:23.257Z,99916.31
2023-03-04T23:41:36.706Z,99909.16
2023-03-04T23:45:49.118Z,99911.84
2023-03-04T23:50:02.603Z,99908.34
2023-03-04T23:54:15.343Z,99912.69
2023-03-04T23:58:27.744Z,99919.75
